Salmon Arm, British Columbia

4:08 PM PDT on June 03, 2015 (GMT -0700)
Golf Course Drive | | Change Station
CLOSE
Current Station
Personal Weather Station
Location: Blind Bay, BRITISH COLUMBIA
Elevation: 1398 ft
Nearby Weather Stations

Elev 1398 ft 50.86 °N, 119.36 °W | Updated 7 minutes ago

Light Rain
Light Rain
59.0 °F
Feels Like 59.0 °F
N
0.0
Wind Variable Wind from ENE
Gusts 1.0 mph

Today
High -- | Low -- °F
--% Chance of Precip.
Yesterday
High -- | Low -- °F
Precip. -- in
4:48 AM 9:02 PM
Full, 98% visible
Pressure 29.96 in
Visibility 9.0 miles
Clouds Mostly Cloudy 4800 ft
Overcast 5500 ft
Dew Point 57 °F
Humidity 93%
Rainfall 0.42 in
Snow Depth Not available.
UV 2 out of 12
Pollen Not available.
Air Quality Not available.
Flu Activity Not available.
METAR CYLW 032300Z AUTO 13007KT 9SM -RA BKN048 OVC055 15/11 A2995 RMK SLP143 DENSITY ALT 1600FT

More Conditions Fewer Conditions

Pressure 29.96 in
Visibility 9.0 miles
Clouds Mostly Cloudy 4800 ft
Overcast 5500 ft
Dew Point 57 °F
Humidity 93%
Rainfall 0.42 in
Snow Depth Not available.
UV 2 out of 12
Pollen Not available.
Air Quality Not available.
Flu Activity Not available.
METAR CYLW 032300Z AUTO 13007KT 9SM -RA BKN048 OVC055 15/11 A2995 RMK SLP143 DENSITY ALT 1600FT

More Conditions Fewer Conditions

10-Day Weather Forecast

×

Almanac

Astronomy

Jun. 03, 2015 Rise Set
Actual Time
Civil Twilight
Nautical Twilight
Astronomical Twilight
Moon
Length of Visible Light
Length of Day
Tomorrow will be .
, % of the Moon is Illuminated

Today's Extremes

Country Highs Country Lows

Community

WunderPhotos

Upload Photos

1,826,297 photos uploaded!

WunderBlogs® & News

Nearby

Air Quality

  Air Quality AQ Index Pollutant
Not available.

Snow Depth

Station Depth Elevation

Earthquake Activity

City Distance Mag. Time & Date
Minimum magnitude displayed is 2.5.

Coastal Water Temperatures

Place Temperature

Stations

Nearby Weather Stations

Station Location Temp. Windchill Dew Point Humidity Wind Precip. Elev Updated Type